PWSweather.com
Personal Weather Stations
Station Observations
JAMES
NorthumberlandGB

NorthumberlandGB

Lat: 55.5507124, Lon: -2.0172811

Elevation: 362

Station Type:

High Low Average
Temperature 53.2°F11.8°C 47.1°F8.4°C 49.0°F9.4°C
Dew Point 43.4°F6.3°C 40.3°F4.6°C 41.3°F5.2°C
Winds 9.2 mph 14.8 kmh Calm Calm 2.0 mph SSE3.2 kmh SSE
Wind Gusts 19.0 mph30.6 kmh 3.1 mph5.0 kmh 10.0 mph16.1 kmh
Humidity 79% 67% 75%
Pressure 30.68 in1038.9 mb 30.61 in1036.6 mb -
Precipitation 0.00 in0.0 mm - -
Hour Temp Dew Point Humidity Winds Wind Gusts Pressure Precip Precip Rate Daily Precip Total
03:36 PM 51.6°F10.9°C 42.9°F6.1°C 72% 2.2 mph SE3.5 kmh SE 6.9 mph11.1 kmh 30.64 in1037.6 mb 0.00 in0.0 mm 0.00 in/hr0.0 mm/hr 0.00 in0.0 mm
03:37 PM 51.6°F10.9°C 42.9°F6.1°C 72% 3.8 mph SSE6.1 kmh SSE 7.6 mph12.2 kmh 30.64 in1037.6 mb 0.00 in0.0 mm 0.00 in/hr0.0 mm/hr 0.00 in0.0 mm
03:38 PM 51.8°F11.0°C 42.7°F5.9°C 71% 4.5 mph SSW7.2 kmh SSW 8.3 mph13.4 kmh 30.64 in1037.6 mb 0.00 in0.0 mm 0.00 in/hr0.0 mm/hr 0.00 in0.0 mm
03:39 PM 52.0°F11.1°C 42.9°F6.1°C 71% 2.2 mph SSE3.5 kmh SSE 8.3 mph13.4 kmh 30.64 in1037.6 mb 0.00 in0.0 mm 0.00 in/hr0.0 mm/hr 0.00 in0.0 mm
03:40 PM 52.2°F11.2°C 43.1°F6.2°C 71% 3.8 mph S6.1 kmh S 8.3 mph13.4 kmh 30.64 in1037.6 mb 0.00 in0.0 mm 0.00 in/hr0.0 mm/hr 0.00 in0.0 mm
03:41 PM 52.3°F11.3°C 43.2°F6.2°C 71% 1.6 mph S2.6 kmh S 8.3 mph13.4 kmh 30.64 in1037.6 mb 0.00 in0.0 mm 0.00 in/hr0.0 mm/hr 0.00 in0.0 mm
03:42 PM 52.5°F11.4°C 43.4°F6.3°C 71% 2.2 mph S3.5 kmh S 8.3 mph13.4 kmh 30.64 in1037.6 mb 0.00 in0.0 mm 0.00 in/hr0.0 mm/hr 0.00 in0.0 mm
03:43 PM 52.9°F11.6°C 43.4°F6.3°C 70% 0.7 mph S1.1 kmh S 8.3 mph13.4 kmh 30.64 in1037.6 mb 0.00 in0.0 mm 0.00 in/hr0.0 mm/hr 0.00 in0.0 mm
03:44 PM 53.1°F11.7°C 43.2°F6.2°C 69% 1.6 mph S2.6 kmh S 8.3 mph13.4 kmh 30.64 in1037.6 mb 0.00 in0.0 mm 0.00 in/hr0.0 mm/hr 0.00 in0.0 mm
03:45 PM 53.2°F11.8°C 43.3°F6.3°C 69% 2.2 mph S3.5 kmh S 8.3 mph13.4 kmh 30.64 in1037.6 mb 0.00 in0.0 mm 0.00 in/hr0.0 mm/hr 0.00 in0.0 mm
03:46 PM 53.2°F11.8°C 42.6°F5.9°C 67% 3.1 mph SSW5.0 kmh SSW 15.2 mph24.5 kmh 30.64 in1037.6 mb 0.00 in0.0 mm 0.00 in/hr0.0 mm/hr 0.00 in0.0 mm
03:47 PM 53.1°F11.7°C 42.4°F5.8°C 67% 4.5 mph SSW7.2 kmh SSW 15.2 mph24.5 kmh 30.64 in1037.6 mb 0.00 in0.0 mm 0.00 in/hr0.0 mm/hr 0.00 in0.0 mm
04:39 PM 51.1°F10.6°C 42.4°F5.8°C 72% 3.1 mph N5.0 kmh N 9.8 mph15.8 kmh 30.64 in1037.6 mb 0.00 in0.0 mm 0.00 in/hr0.0 mm/hr 0.00 in0.0 mm
04:40 PM 51.1°F10.6°C 42.4°F5.8°C 72% 6.0 mph WSW9.7 kmh WSW 9.8 mph15.8 kmh 30.64 in1037.6 mb 0.00 in0.0 mm 0.00 in/hr0.0 mm/hr 0.00 in0.0 mm
04:41 PM 50.9°F10.5°C 42.2°F5.7°C 72% 6.9 mph SW11.1 kmh SW 12.1 mph19.5 kmh 30.64 in1037.6 mb 0.00 in0.0 mm 0.00 in/hr0.0 mm/hr 0.00 in0.0 mm
04:42 PM 50.9°F10.5°C 42.6°F5.9°C 73% 4.5 mph SSW7.2 kmh SSW 13.0 mph20.9 kmh 30.64 in1037.6 mb 0.00 in0.0 mm 0.00 in/hr0.0 mm/hr 0.00 in0.0 mm
04:43 PM 50.9°F10.5°C 42.6°F5.9°C 73% 3.1 mph SW5.0 kmh SW 13.0 mph20.9 kmh 30.64 in1037.6 mb 0.00 in0.0 mm 0.00 in/hr0.0 mm/hr 0.00 in0.0 mm
04:44 PM 50.9°F10.5°C 42.6°F5.9°C 73% 3.1 mph SSW5.0 kmh SSW 13.0 mph20.9 kmh 30.64 in1037.6 mb 0.00 in0.0 mm 0.00 in/hr0.0 mm/hr 0.00 in0.0 mm
04:45 PM 50.9°F10.5°C 42.6°F5.9°C 73% 2.2 mph SSW3.5 kmh SSW 13.0 mph20.9 kmh 30.64 in1037.6 mb 0.00 in0.0 mm 0.00 in/hr0.0 mm/hr 0.00 in0.0 mm
04:46 PM 50.9°F10.5°C 42.6°F5.9°C 73% 3.1 mph SSW5.0 kmh SSW 13.0 mph20.9 kmh 30.64 in1037.6 mb 0.00 in0.0 mm 0.00 in/hr0.0 mm/hr 0.00 in0.0 mm
04:47 PM 50.9°F10.5°C 42.6°F5.9°C 73% 5.4 mph SSW8.7 kmh SSW 13.0 mph20.9 kmh 30.64 in1037.6 mb 0.00 in0.0 mm 0.00 in/hr0.0 mm/hr 0.00 in0.0 mm
04:48 PM 50.9°F10.5°C 42.6°F5.9°C 73% 3.1 mph SSW5.0 kmh SSW 13.0 mph20.9 kmh 30.64 in1037.6 mb 0.00 in0.0 mm 0.00 in/hr0.0 mm/hr 0.00 in0.0 mm
04:49 PM 50.9°F10.5°C 42.6°F5.9°C 73% 2.2 mph SSW3.5 kmh SSW 13.0 mph20.9 kmh 30.64 in1037.6 mb 0.00 in0.0 mm 0.00 in/hr0.0 mm/hr 0.00 in0.0 mm
04:50 PM 50.9°F10.5°C 42.6°F5.9°C 73% 3.1 mph SSW5.0 kmh SSW 13.0 mph20.9 kmh 30.64 in1037.6 mb 0.00 in0.0 mm 0.00 in/hr0.0 mm/hr 0.00 in0.0 mm
04:51 PM 50.9°F10.5°C 42.6°F5.9°C 73% 3.1 mph S5.0 kmh S 13.0 mph20.9 kmh 30.64 in1037.6 mb 0.00 in0.0 mm 0.00 in/hr0.0 mm/hr 0.00 in0.0 mm
04:52 PM 50.9°F10.5°C 42.6°F5.9°C 73% 3.8 mph S6.1 kmh S 9.8 mph15.8 kmh 30.63 in1037.3 mb 0.00 in0.0 mm 0.00 in/hr0.0 mm/hr 0.00 in0.0 mm
04:53 PM 50.9°F10.5°C 42.6°F5.9°C 73% 2.2 mph S3.5 kmh S 9.8 mph15.8 kmh 30.63 in1037.3 mb 0.00 in0.0 mm 0.00 in/hr0.0 mm/hr 0.00 in0.0 mm
04:54 PM 50.9°F10.5°C 42.6°F5.9°C 73% 1.6 mph S2.6 kmh S 9.8 mph15.8 kmh 30.64 in1037.6 mb 0.00 in0.0 mm 0.00 in/hr0.0 mm/hr 0.00 in0.0 mm
04:55 PM 50.9°F10.5°C 42.6°F5.9°C 73% 2.2 mph S3.5 kmh S 13.0 mph20.9 kmh 30.63 in1037.3 mb 0.00 in0.0 mm 0.00 in/hr0.0 mm/hr 0.00 in0.0 mm
04:56 PM 50.9°F10.5°C 42.6°F5.9°C 73% 3.8 mph S6.1 kmh S 13.0 mph20.9 kmh 30.64 in1037.6 mb 0.00 in0.0 mm 0.00 in/hr0.0 mm/hr 0.00 in0.0 mm
04:57 PM 50.7°F10.4°C 42.4°F5.8°C 73% 2.2 mph S3.5 kmh S 13.0 mph20.9 kmh 30.63 in1037.3 mb 0.00 in0.0 mm 0.00 in/hr0.0 mm/hr 0.00 in0.0 mm
04:58 PM 50.9°F10.5°C 42.6°F5.9°C 73% 3.1 mph S5.0 kmh S 13.0 mph20.9 kmh 30.63 in1037.3 mb 0.00 in0.0 mm 0.00 in/hr0.0 mm/hr 0.00 in0.0 mm
04:59 PM 50.7°F10.4°C 42.4°F5.8°C 73% 4.5 mph S7.2 kmh S 13.0 mph20.9 kmh 30.64 in1037.6 mb 0.00 in0.0 mm 0.00 in/hr0.0 mm/hr 0.00 in0.0 mm
05:00 PM 50.7°F10.4°C 42.4°F5.8°C 73% 3.8 mph S6.1 kmh S 13.0 mph20.9 kmh 30.63 in1037.3 mb 0.00 in0.0 mm 0.00 in/hr0.0 mm/hr 0.00 in0.0 mm
05:01 PM 50.7°F10.4°C 42.4°F5.8°C 73% 1.6 mph S2.6 kmh S 13.0 mph20.9 kmh 30.63 in1037.3 mb 0.00 in0.0 mm 0.00 in/hr0.0 mm/hr 0.00 in0.0 mm
05:02 PM 50.7°F10.4°C 42.4°F5.8°C 73% 3.8 mph S6.1 kmh S 13.0 mph20.9 kmh 30.64 in1037.6 mb 0.00 in0.0 mm 0.00 in/hr0.0 mm/hr 0.00 in0.0 mm
05:03 PM 50.7°F10.4°C 42.4°F5.8°C 73% 4.5 mph S7.2 kmh S 13.0 mph20.9 kmh 30.64 in1037.6 mb 0.00 in0.0 mm 0.00 in/hr0.0 mm/hr 0.00 in0.0 mm
05:04 PM 50.7°F10.4°C 42.4°F5.8°C 73% 5.4 mph S8.7 kmh S 13.0 mph20.9 kmh 30.64 in1037.6 mb 0.00 in0.0 mm 0.00 in/hr0.0 mm/hr 0.00 in0.0 mm
05:05 PM 50.7°F10.4°C 42.4°F5.8°C 73% 3.8 mph S6.1 kmh S 13.0 mph20.9 kmh 30.63 in1037.3 mb 0.00 in0.0 mm 0.00 in/hr0.0 mm/hr 0.00 in0.0 mm
05:06 PM 50.7°F10.4°C 42.4°F5.8°C 73% 5.4 mph S8.7 kmh S 13.0 mph20.9 kmh 30.64 in1037.6 mb 0.00 in0.0 mm 0.00 in/hr0.0 mm/hr 0.00 in0.0 mm
05:07 PM 50.7°F10.4°C 42.4°F5.8°C 73% 6.9 mph SSW11.1 kmh SSW 15.2 mph24.5 kmh 30.63 in1037.3 mb 0.00 in0.0 mm 0.00 in/hr0.0 mm/hr 0.00 in0.0 mm
05:08 PM 50.7°F10.4°C 42.4°F5.8°C 73% 6.0 mph S9.7 kmh S 15.2 mph24.5 kmh 30.64 in1037.6 mb 0.00 in0.0 mm 0.00 in/hr0.0 mm/hr 0.00 in0.0 mm
05:09 PM 50.7°F10.4°C 42.7°F5.9°C 74% 5.4 mph S8.7 kmh S 15.2 mph24.5 kmh 30.64 in1037.6 mb 0.00 in0.0 mm 0.00 in/hr0.0 mm/hr 0.00 in0.0 mm
05:10 PM 50.7°F10.4°C 42.7°F5.9°C 74% 3.8 mph S6.1 kmh S 15.2 mph24.5 kmh 30.64 in1037.6 mb 0.00 in0.0 mm 0.00 in/hr0.0 mm/hr 0.00 in0.0 mm
05:11 PM 50.7°F10.4°C 42.7°F5.9°C 74% 3.1 mph S5.0 kmh S 15.2 mph24.5 kmh 30.64 in1037.6 mb 0.00 in0.0 mm 0.00 in/hr0.0 mm/hr 0.00 in0.0 mm
05:12 PM 50.7°F10.4°C 42.7°F5.9°C 74% 3.1 mph S5.0 kmh S 15.2 mph24.5 kmh 30.64 in1037.6 mb 0.00 in0.0 mm 0.00 in/hr0.0 mm/hr 0.00 in0.0 mm
05:13 PM 50.7°F10.4°C 42.7°F5.9°C 74% 2.2 mph S3.5 kmh S 15.2 mph24.5 kmh 30.63 in1037.3 mb 0.00 in0.0 mm 0.00 in/hr0.0 mm/hr 0.00 in0.0 mm
05:14 PM 50.5°F10.3°C 42.6°F5.9°C 74% 1.6 mph S2.6 kmh S 15.2 mph24.5 kmh 30.64 in1037.6 mb 0.00 in0.0 mm 0.00 in/hr0.0 mm/hr 0.00 in0.0 mm
05:15 PM 50.5°F10.3°C 42.6°F5.9°C 74% 4.5 mph S7.2 kmh S 15.2 mph24.5 kmh 30.64 in1037.6 mb 0.00 in0.0 mm 0.00 in/hr0.0 mm/hr 0.00 in0.0 mm
05:16 PM 50.5°F10.3°C 42.6°F5.9°C 74% 5.4 mph S8.7 kmh S 15.2 mph24.5 kmh 30.63 in1037.3 mb 0.00 in0.0 mm 0.00 in/hr0.0 mm/hr 0.00 in0.0 mm
05:17 PM 50.5°F10.3°C 42.6°F5.9°C 74% 3.8 mph S6.1 kmh S 15.2 mph24.5 kmh 30.64 in1037.6 mb 0.00 in0.0 mm 0.00 in/hr0.0 mm/hr 0.00 in0.0 mm
05:18 PM 50.5°F10.3°C 42.2°F5.7°C 73% 2.2 mph SSE3.5 kmh SSE 13.6 mph21.9 kmh 30.64 in1037.6 mb 0.00 in0.0 mm 0.00 in/hr0.0 mm/hr 0.00 in0.0 mm
05:19 PM 50.5°F10.3°C 42.2°F5.7°C 73% 4.5 mph SSE7.2 kmh SSE 13.6 mph21.9 kmh 30.63 in1037.3 mb 0.00 in0.0 mm 0.00 in/hr0.0 mm/hr 0.00 in0.0 mm
05:20 PM 50.5°F10.3°C 42.2°F5.7°C 73% 3.1 mph SSE5.0 kmh SSE 11.4 mph18.3 kmh 30.64 in1037.6 mb 0.00 in0.0 mm 0.00 in/hr0.0 mm/hr 0.00 in0.0 mm
05:21 PM 50.5°F10.3°C 42.2°F5.7°C 73% 4.5 mph SE7.2 kmh SE 11.4 mph18.3 kmh 30.63 in1037.3 mb 0.00 in0.0 mm 0.00 in/hr0.0 mm/hr 0.00 in0.0 mm
05:22 PM 50.5°F10.3°C 42.2°F5.7°C 73% 3.8 mph SE6.1 kmh SE 11.4 mph18.3 kmh 30.64 in1037.6 mb 0.00 in0.0 mm 0.00 in/hr0.0 mm/hr 0.00 in0.0 mm
05:23 PM 50.4°F10.2°C 42.0°F5.6°C 73% 3.8 mph SE6.1 kmh SE 11.4 mph18.3 kmh 30.64 in1037.6 mb 0.00 in0.0 mm 0.00 in/hr0.0 mm/hr 0.00 in0.0 mm
05:24 PM 50.4°F10.2°C 42.0°F5.6°C 73% 5.4 mph SE8.7 kmh SE 12.1 mph19.5 kmh 30.64 in1037.6 mb 0.00 in0.0 mm 0.00 in/hr0.0 mm/hr 0.00 in0.0 mm
05:25 PM 50.4°F10.2°C 42.0°F5.6°C 73% 3.1 mph SE5.0 kmh SE 12.1 mph19.5 kmh 30.65 in1037.9 mb 0.00 in0.0 mm 0.00 in/hr0.0 mm/hr 0.00 in0.0 mm
05:26 PM 50.4°F10.2°C 42.0°F5.6°C 73% 6.0 mph SSE9.7 kmh SSE 12.1 mph19.5 kmh 30.65 in1037.9 mb 0.00 in0.0 mm 0.00 in/hr0.0 mm/hr 0.00 in0.0 mm
05:27 PM 50.4°F10.2°C 42.0°F5.6°C 73% 3.8 mph S6.1 kmh S 12.1 mph19.5 kmh 30.65 in1037.9 mb 0.00 in0.0 mm 0.00 in/hr0.0 mm/hr 0.00 in0.0 mm
05:28 PM 50.4°F10.2°C 42.0°F5.6°C 73% 3.8 mph S6.1 kmh S 12.1 mph19.5 kmh 30.65 in1037.9 mb 0.00 in0.0 mm 0.00 in/hr0.0 mm/hr 0.00 in0.0 mm
05:29 PM 50.4°F10.2°C 41.7°F5.4°C 72% 6.0 mph S9.7 kmh S 12.1 mph19.5 kmh 30.65 in1037.9 mb 0.00 in0.0 mm 0.00 in/hr0.0 mm/hr 0.00 in0.0 mm
05:30 PM 50.4°F10.2°C 42.0°F5.6°C 73% 3.8 mph S6.1 kmh S 12.1 mph19.5 kmh 30.64 in1037.6 mb 0.00 in0.0 mm 0.00 in/hr0.0 mm/hr 0.00 in0.0 mm
05:31 PM 50.4°F10.2°C 42.0°F5.6°C 73% 1.6 mph S2.6 kmh S 12.1 mph19.5 kmh 30.65 in1037.9 mb 0.00 in0.0 mm 0.00 in/hr0.0 mm/hr 0.00 in0.0 mm
05:32 PM 50.4°F10.2°C 42.0°F5.6°C 73% 4.5 mph S7.2 kmh S 12.1 mph19.5 kmh 30.65 in1037.9 mb 0.00 in0.0 mm 0.00 in/hr0.0 mm/hr 0.00 in0.0 mm
05:33 PM 50.4°F10.2°C 41.7°F5.4°C 72% 4.5 mph S7.2 kmh S 12.1 mph19.5 kmh 30.65 in1037.9 mb 0.00 in0.0 mm 0.00 in/hr0.0 mm/hr 0.00 in0.0 mm
05:34 PM 50.4°F10.2°C 42.0°F5.6°C 73% 3.1 mph S5.0 kmh S 12.1 mph19.5 kmh 30.65 in1037.9 mb 0.00 in0.0 mm 0.00 in/hr0.0 mm/hr 0.00 in0.0 mm
05:35 PM 50.4°F10.2°C 41.7°F5.4°C 72% 6.0 mph SSW9.7 kmh SSW 13.0 mph20.9 kmh 30.65 in1037.9 mb 0.00 in0.0 mm 0.00 in/hr0.0 mm/hr 0.00 in0.0 mm
05:36 PM 50.4°F10.2°C 41.7°F5.4°C 72% 2.2 mph S3.5 kmh S 13.0 mph20.9 kmh 30.65 in1037.9 mb 0.00 in0.0 mm 0.00 in/hr0.0 mm/hr 0.00 in0.0 mm
05:37 PM 50.2°F10.1°C 41.5°F5.3°C 72% 3.8 mph S6.1 kmh S 13.0 mph20.9 kmh 30.64 in1037.6 mb 0.00 in0.0 mm 0.00 in/hr0.0 mm/hr 0.00 in0.0 mm
05:38 PM 50.2°F10.1°C 41.5°F5.3°C 72% 3.1 mph S5.0 kmh S 13.0 mph20.9 kmh 30.64 in1037.6 mb 0.00 in0.0 mm 0.00 in/hr0.0 mm/hr 0.00 in0.0 mm
05:39 PM 50.2°F10.1°C 41.5°F5.3°C 72% 2.2 mph SSW3.5 kmh SSW 13.0 mph20.9 kmh 30.64 in1037.6 mb 0.00 in0.0 mm 0.00 in/hr0.0 mm/hr 0.00 in0.0 mm
05:40 PM 50.2°F10.1°C 41.9°F5.5°C 73% 3.1 mph S5.0 kmh S 13.0 mph20.9 kmh 30.64 in1037.6 mb 0.00 in0.0 mm 0.00 in/hr0.0 mm/hr 0.00 in0.0 mm
05:41 PM 50.2°F10.1°C 41.9°F5.5°C 73% 3.1 mph SSW5.0 kmh SSW 13.0 mph20.9 kmh 30.64 in1037.6 mb 0.00 in0.0 mm 0.00 in/hr0.0 mm/hr 0.00 in0.0 mm
05:42 PM 50.0°F10.0°C 41.7°F5.4°C 73% Calm Calm 13.0 mph20.9 kmh 30.64 in1037.6 mb 0.00 in0.0 mm 0.00 in/hr0.0 mm/hr 0.00 in0.0 mm
05:43 PM 50.2°F10.1°C 41.9°F5.5°C 73% Calm Calm 13.0 mph20.9 kmh 30.64 in1037.6 mb 0.00 in0.0 mm 0.00 in/hr0.0 mm/hr 0.00 in0.0 mm
05:44 PM 50.0°F10.0°C 41.7°F5.4°C 73% 0.7 mph SSW1.1 kmh SSW 13.0 mph20.9 kmh 30.64 in1037.6 mb 0.00 in0.0 mm 0.00 in/hr0.0 mm/hr 0.00 in0.0 mm
05:45 PM 50.0°F10.0°C 41.7°F5.4°C 73% 4.5 mph SSW7.2 kmh SSW 13.0 mph20.9 kmh 30.64 in1037.6 mb 0.00 in0.0 mm 0.00 in/hr0.0 mm/hr 0.00 in0.0 mm
05:46 PM 50.0°F10.0°C 41.7°F5.4°C 73% 1.6 mph SSW2.6 kmh SSW 10.7 mph17.2 kmh 30.64 in1037.6 mb 0.00 in0.0 mm 0.00 in/hr0.0 mm/hr 0.00 in0.0 mm
05:47 PM 50.0°F10.0°C 41.7°F5.4°C 73% Calm Calm 10.7 mph17.2 kmh 30.64 in1037.6 mb 0.00 in0.0 mm 0.00 in/hr0.0 mm/hr 0.00 in0.0 mm
05:48 PM 50.0°F10.0°C 41.7°F5.4°C 73% 1.6 mph SSW2.6 kmh SSW 10.7 mph17.2 kmh 30.64 in1037.6 mb 0.00 in0.0 mm 0.00 in/hr0.0 mm/hr 0.00 in0.0 mm
05:49 PM 49.8°F9.9°C 41.5°F5.3°C 73% 1.6 mph SSW2.6 kmh SSW 10.7 mph17.2 kmh 30.63 in1037.3 mb 0.00 in0.0 mm 0.00 in/hr0.0 mm/hr 0.00 in0.0 mm
05:50 PM 49.8°F9.9°C 41.5°F5.3°C 73% 0.7 mph SW1.1 kmh SW 10.7 mph17.2 kmh 30.64 in1037.6 mb 0.00 in0.0 mm 0.00 in/hr0.0 mm/hr 0.00 in0.0 mm
05:51 PM 49.8°F9.9°C 41.5°F5.3°C 73% 0.7 mph SSW1.1 kmh SSW 10.7 mph17.2 kmh 30.64 in1037.6 mb 0.00 in0.0 mm 0.00 in/hr0.0 mm/hr 0.00 in0.0 mm
05:52 PM 49.8°F9.9°C 41.5°F5.3°C 73% 2.2 mph SSW3.5 kmh SSW 10.7 mph17.2 kmh 30.63 in1037.3 mb 0.00 in0.0 mm 0.00 in/hr0.0 mm/hr 0.00 in0.0 mm
05:53 PM 49.6°F9.8°C 41.3°F5.2°C 73% 1.6 mph S2.6 kmh S 10.7 mph17.2 kmh 30.63 in1037.3 mb 0.00 in0.0 mm 0.00 in/hr0.0 mm/hr 0.00 in0.0 mm
05:54 PM 49.6°F9.8°C 41.3°F5.2°C 73% 2.2 mph SSW3.5 kmh SSW 10.7 mph17.2 kmh 30.64 in1037.6 mb 0.00 in0.0 mm 0.00 in/hr0.0 mm/hr 0.00 in0.0 mm
05:55 PM 49.6°F9.8°C 41.3°F5.2°C 73% 2.2 mph S3.5 kmh S 7.6 mph12.2 kmh 30.63 in1037.3 mb 0.00 in0.0 mm 0.00 in/hr0.0 mm/hr 0.00 in0.0 mm
05:56 PM 49.6°F9.8°C 41.3°F5.2°C 73% Calm Calm 7.6 mph12.2 kmh 30.63 in1037.3 mb 0.00 in0.0 mm 0.00 in/hr0.0 mm/hr 0.00 in0.0 mm
05:57 PM 49.6°F9.8°C 41.3°F5.2°C 73% 1.6 mph S2.6 kmh S 7.6 mph12.2 kmh 30.63 in1037.3 mb 0.00 in0.0 mm 0.00 in/hr0.0 mm/hr 0.00 in0.0 mm
05:58 PM 49.5°F9.7°C 41.2°F5.1°C 73% 4.5 mph S7.2 kmh S 8.3 mph13.4 kmh 30.63 in1037.3 mb 0.00 in0.0 mm 0.00 in/hr0.0 mm/hr 0.00 in0.0 mm
05:59 PM 49.5°F9.7°C 41.2°F5.1°C 73% 3.1 mph S5.0 kmh S 9.8 mph15.8 kmh 30.63 in1037.3 mb 0.00 in0.0 mm 0.00 in/hr0.0 mm/hr 0.00 in0.0 mm
06:00 PM 49.5°F9.7°C 41.2°F5.1°C 73% 3.1 mph SE5.0 kmh SE 9.8 mph15.8 kmh 30.63 in1037.3 mb 0.00 in0.0 mm 0.00 in/hr0.0 mm/hr 0.00 in0.0 mm
06:01 PM 49.5°F9.7°C 41.2°F5.1°C 73% 2.2 mph SE3.5 kmh SE 9.8 mph15.8 kmh 30.64 in1037.6 mb 0.00 in0.0 mm 0.00 in/hr0.0 mm/hr 0.00 in0.0 mm
06:02 PM 49.5°F9.7°C 41.2°F5.1°C 73% 4.5 mph SE7.2 kmh SE 11.4 mph18.3 kmh 30.63 in1037.3 mb 0.00 in0.0 mm 0.00 in/hr0.0 mm/hr 0.00 in0.0 mm
06:03 PM 49.5°F9.7°C 41.2°F5.1°C 73% 2.2 mph SE3.5 kmh SE 11.4 mph18.3 kmh 30.63 in1037.3 mb 0.00 in0.0 mm 0.00 in/hr0.0 mm/hr 0.00 in0.0 mm
06:04 PM 49.5°F9.7°C 41.2°F5.1°C 73% 2.2 mph SE3.5 kmh SE 11.4 mph18.3 kmh 30.63 in1037.3 mb 0.00 in0.0 mm 0.00 in/hr0.0 mm/hr 0.00 in0.0 mm
06:05 PM 49.5°F9.7°C 41.2°F5.1°C 73% 2.2 mph ESE3.5 kmh ESE 11.4 mph18.3 kmh 30.63 in1037.3 mb 0.00 in0.0 mm 0.00 in/hr0.0 mm/hr 0.00 in0.0 mm
06:06 PM 49.5°F9.7°C 41.2°F5.1°C 73% 1.6 mph E2.6 kmh E 11.4 mph18.3 kmh 30.64 in1037.6 mb 0.00 in0.0 mm 0.00 in/hr0.0 mm/hr 0.00 in0.0 mm
06:07 PM 49.5°F9.7°C 41.2°F5.1°C 73% 5.4 mph E8.7 kmh E 15.2 mph24.5 kmh 30.63 in1037.3 mb 0.00 in0.0 mm 0.00 in/hr0.0 mm/hr 0.00 in0.0 mm
06:08 PM 49.5°F9.7°C 41.2°F5.1°C 73% 2.2 mph ENE3.5 kmh ENE 15.2 mph24.5 kmh 30.63 in1037.3 mb 0.00 in0.0 mm 0.00 in/hr0.0 mm/hr 0.00 in0.0 mm
06:09 PM 49.5°F9.7°C 41.2°F5.1°C 73% 2.2 mph NE3.5 kmh NE 15.2 mph24.5 kmh 30.63 in1037.3 mb 0.00 in0.0 mm 0.00 in/hr0.0 mm/hr 0.00 in0.0 mm
06:10 PM 49.5°F9.7°C 41.2°F5.1°C 73% 5.4 mph NNE8.7 kmh NNE 15.2 mph24.5 kmh 30.61 in1036.6 mb 0.00 in0.0 mm 0.00 in/hr0.0 mm/hr 0.00 in0.0 mm
06:11 PM 49.5°F9.7°C 41.2°F5.1°C 73% 0.7 mph NE1.1 kmh NE 15.2 mph24.5 kmh 30.62 in1036.9 mb 0.00 in0.0 mm 0.00 in/hr0.0 mm/hr 0.00 in0.0 mm
06:12 PM 49.5°F9.7°C 41.2°F5.1°C 73% 3.1 mph N5.0 kmh N 15.2 mph24.5 kmh 30.62 in1036.9 mb 0.00 in0.0 mm 0.00 in/hr0.0 mm/hr 0.00 in0.0 mm
06:13 PM 49.3°F9.6°C 41.0°F5.0°C 73% 3.1 mph NW5.0 kmh NW 15.2 mph24.5 kmh 30.62 in1036.9 mb 0.00 in0.0 mm 0.00 in/hr0.0 mm/hr 0.00 in0.0 mm
06:14 PM 49.3°F9.6°C 41.0°F5.0°C 73% 1.6 mph NW2.6 kmh NW 15.2 mph24.5 kmh 30.61 in1036.6 mb 0.00 in0.0 mm 0.00 in/hr0.0 mm/hr 0.00 in0.0 mm
06:15 PM 49.3°F9.6°C 41.0°F5.0°C 73% 3.8 mph NW6.1 kmh NW 15.2 mph24.5 kmh 30.62 in1036.9 mb 0.00 in0.0 mm 0.00 in/hr0.0 mm/hr 0.00 in0.0 mm
06:16 PM 49.3°F9.6°C 41.0°F5.0°C 73% 4.5 mph ENE7.2 kmh ENE 15.2 mph24.5 kmh 30.62 in1036.9 mb 0.00 in0.0 mm 0.00 in/hr0.0 mm/hr 0.00 in0.0 mm
06:17 PM 49.3°F9.6°C 41.0°F5.0°C 73% 2.2 mph SE3.5 kmh SE 15.2 mph24.5 kmh 30.62 in1036.9 mb 0.00 in0.0 mm 0.00 in/hr0.0 mm/hr 0.00 in0.0 mm
06:18 PM 49.3°F9.6°C 41.4°F5.2°C 74% 3.1 mph SSE5.0 kmh SSE 13.0 mph20.9 kmh 30.63 in1037.3 mb 0.00 in0.0 mm 0.00 in/hr0.0 mm/hr 0.00 in0.0 mm
06:19 PM 49.3°F9.6°C 41.4°F5.2°C 74% 4.5 mph SSE7.2 kmh SSE 13.0 mph20.9 kmh 30.62 in1036.9 mb 0.00 in0.0 mm 0.00 in/hr0.0 mm/hr 0.00 in0.0 mm
06:20 PM 49.3°F9.6°C 41.4°F5.2°C 74% 4.5 mph SE7.2 kmh SE 13.0 mph20.9 kmh 30.63 in1037.3 mb 0.00 in0.0 mm 0.00 in/hr0.0 mm/hr 0.00 in0.0 mm
06:21 PM 49.3°F9.6°C 41.0°F5.0°C 73% 5.4 mph SSE8.7 kmh SSE 13.0 mph20.9 kmh 30.63 in1037.3 mb 0.00 in0.0 mm 0.00 in/hr0.0 mm/hr 0.00 in0.0 mm
06:22 PM 49.3°F9.6°C 41.0°F5.0°C 73% 3.8 mph SE6.1 kmh SE 13.0 mph20.9 kmh 30.63 in1037.3 mb 0.00 in0.0 mm 0.00 in/hr0.0 mm/hr 0.00 in0.0 mm
06:23 PM 49.3°F9.6°C 41.0°F5.0°C 73% 6.9 mph SE11.1 kmh SE 13.0 mph20.9 kmh 30.64 in1037.6 mb 0.00 in0.0 mm 0.00 in/hr0.0 mm/hr 0.00 in0.0 mm
06:24 PM 49.3°F9.6°C 41.0°F5.0°C 73% 4.5 mph SE7.2 kmh SE 13.0 mph20.9 kmh 30.63 in1037.3 mb 0.00 in0.0 mm 0.00 in/hr0.0 mm/hr 0.00 in0.0 mm
06:25 PM 49.3°F9.6°C 41.0°F5.0°C 73% 2.2 mph SE3.5 kmh SE 13.0 mph20.9 kmh 30.64 in1037.6 mb 0.00 in0.0 mm 0.00 in/hr0.0 mm/hr 0.00 in0.0 mm
06:26 PM 49.3°F9.6°C 41.0°F5.0°C 73% 4.5 mph SE7.2 kmh SE 13.0 mph20.9 kmh 30.64 in1037.6 mb 0.00 in0.0 mm 0.00 in/hr0.0 mm/hr 0.00 in0.0 mm
06:27 PM 49.3°F9.6°C 41.0°F5.0°C 73% 5.4 mph E8.7 kmh E 19.0 mph30.6 kmh 30.64 in1037.6 mb 0.00 in0.0 mm 0.00 in/hr0.0 mm/hr 0.00 in0.0 mm
06:28 PM 49.3°F9.6°C 41.0°F5.0°C 73% 1.6 mph NNE2.6 kmh NNE 19.0 mph30.6 kmh 30.64 in1037.6 mb 0.00 in0.0 mm 0.00 in/hr0.0 mm/hr 0.00 in0.0 mm
06:29 PM 49.3°F9.6°C 41.0°F5.0°C 73% 6.0 mph NE9.7 kmh NE 19.0 mph30.6 kmh 30.64 in1037.6 mb 0.00 in0.0 mm 0.00 in/hr0.0 mm/hr 0.00 in0.0 mm
06:30 PM 49.5°F9.7°C 41.2°F5.1°C 73% 9.2 mph NNE14.8 kmh NNE 19.0 mph30.6 kmh 30.63 in1037.3 mb 0.00 in0.0 mm 0.00 in/hr0.0 mm/hr 0.00 in0.0 mm
06:31 PM 49.5°F9.7°C 41.2°F5.1°C 73% 6.0 mph N9.7 kmh N 19.0 mph30.6 kmh 30.64 in1037.6 mb 0.00 in0.0 mm 0.00 in/hr0.0 mm/hr 0.00 in0.0 mm
06:32 PM 49.3°F9.6°C 41.0°F5.0°C 73% 0.7 mph N1.1 kmh N 19.0 mph30.6 kmh 30.65 in1037.9 mb 0.00 in0.0 mm 0.00 in/hr0.0 mm/hr 0.00 in0.0 mm
06:33 PM 49.3°F9.6°C 41.0°F5.0°C 73% 1.6 mph N2.6 kmh N 19.0 mph30.6 kmh 30.64 in1037.6 mb 0.00 in0.0 mm 0.00 in/hr0.0 mm/hr 0.00 in0.0 mm
06:34 PM 49.3°F9.6°C 41.0°F5.0°C 73% 4.5 mph N7.2 kmh N 19.0 mph30.6 kmh 30.63 in1037.3 mb 0.00 in0.0 mm 0.00 in/hr0.0 mm/hr 0.00 in0.0 mm
06:35 PM 49.3°F9.6°C 41.0°F5.0°C 73% 3.8 mph N6.1 kmh N 19.0 mph30.6 kmh 30.64 in1037.6 mb 0.00 in0.0 mm 0.00 in/hr0.0 mm/hr 0.00 in0.0 mm
06:36 PM 49.3°F9.6°C 41.0°F5.0°C 73% 3.1 mph N5.0 kmh N 19.0 mph30.6 kmh 30.64 in1037.6 mb 0.00 in0.0 mm 0.00 in/hr0.0 mm/hr 0.00 in0.0 mm
06:37 PM 49.3°F9.6°C 41.0°F5.0°C 73% 3.1 mph NNE5.0 kmh NNE 19.0 mph30.6 kmh 30.63 in1037.3 mb 0.00 in0.0 mm 0.00 in/hr0.0 mm/hr 0.00 in0.0 mm
06:38 PM 49.3°F9.6°C 41.0°F5.0°C 73% 5.4 mph NNE8.7 kmh NNE 14.5 mph23.3 kmh 30.64 in1037.6 mb 0.00 in0.0 mm 0.00 in/hr0.0 mm/hr 0.00 in0.0 mm
06:39 PM 49.3°F9.6°C 41.0°F5.0°C 73% 3.8 mph NNE6.1 kmh NNE 14.5 mph23.3 kmh 30.63 in1037.3 mb 0.00 in0.0 mm 0.00 in/hr0.0 mm/hr 0.00 in0.0 mm
06:40 PM 49.3°F9.6°C 41.0°F5.0°C 73% 2.2 mph NNE3.5 kmh NNE 14.5 mph23.3 kmh 30.63 in1037.3 mb 0.00 in0.0 mm 0.00 in/hr0.0 mm/hr 0.00 in0.0 mm
06:41 PM 49.3°F9.6°C 41.0°F5.0°C 73% 2.2 mph NE3.5 kmh NE 13.0 mph20.9 kmh 30.64 in1037.6 mb 0.00 in0.0 mm 0.00 in/hr0.0 mm/hr 0.00 in0.0 mm
06:42 PM 49.3°F9.6°C 41.0°F5.0°C 73% 1.6 mph NNE2.6 kmh NNE 13.0 mph20.9 kmh 30.64 in1037.6 mb 0.00 in0.0 mm 0.00 in/hr0.0 mm/hr 0.00 in0.0 mm
06:43 PM 49.3°F9.6°C 41.0°F5.0°C 73% 1.6 mph NE2.6 kmh NE 13.0 mph20.9 kmh 30.64 in1037.6 mb 0.00 in0.0 mm 0.00 in/hr0.0 mm/hr 0.00 in0.0 mm
06:44 PM 49.3°F9.6°C 41.0°F5.0°C 73% 1.6 mph NE2.6 kmh NE 13.0 mph20.9 kmh 30.64 in1037.6 mb 0.00 in0.0 mm 0.00 in/hr0.0 mm/hr 0.00 in0.0 mm
06:45 PM 49.1°F9.5°C 40.8°F4.9°C 73% 1.6 mph NE2.6 kmh NE 13.0 mph20.9 kmh 30.64 in1037.6 mb 0.00 in0.0 mm 0.00 in/hr0.0 mm/hr 0.00 in0.0 mm
06:46 PM 49.1°F9.5°C 40.8°F4.9°C 73% 1.6 mph NE2.6 kmh NE 12.1 mph19.5 kmh 30.64 in1037.6 mb 0.00 in0.0 mm 0.00 in/hr0.0 mm/hr 0.00 in0.0 mm
06:47 PM 49.1°F9.5°C 40.8°F4.9°C 73% 0.7 mph ENE1.1 kmh ENE 12.1 mph19.5 kmh 30.63 in1037.3 mb 0.00 in0.0 mm 0.00 in/hr0.0 mm/hr 0.00 in0.0 mm
06:48 PM 49.1°F9.5°C 41.2°F5.1°C 74% 2.2 mph ESE3.5 kmh ESE 12.1 mph19.5 kmh 30.64 in1037.6 mb 0.00 in0.0 mm 0.00 in/hr0.0 mm/hr 0.00 in0.0 mm
06:49 PM 48.9°F9.4°C 41.0°F5.0°C 74% 2.2 mph SE3.5 kmh SE 11.4 mph18.3 kmh 30.64 in1037.6 mb 0.00 in0.0 mm 0.00 in/hr0.0 mm/hr 0.00 in0.0 mm
06:50 PM 48.9°F9.4°C 41.0°F5.0°C 74% 3.1 mph SSE5.0 kmh SSE 11.4 mph18.3 kmh 30.64 in1037.6 mb 0.00 in0.0 mm 0.00 in/hr0.0 mm/hr 0.00 in0.0 mm
06:51 PM 48.9°F9.4°C 41.0°F5.0°C 74% 3.1 mph SE5.0 kmh SE 11.4 mph18.3 kmh 30.64 in1037.6 mb 0.00 in0.0 mm 0.00 in/hr0.0 mm/hr 0.00 in0.0 mm
06:52 PM 48.9°F9.4°C 41.0°F5.0°C 74% 0.7 mph SSE1.1 kmh SSE 9.8 mph15.8 kmh 30.64 in1037.6 mb 0.00 in0.0 mm 0.00 in/hr0.0 mm/hr 0.00 in0.0 mm
06:53 PM 48.9°F9.4°C 41.0°F5.0°C 74% 1.6 mph SSE2.6 kmh SSE 8.3 mph13.4 kmh 30.64 in1037.6 mb 0.00 in0.0 mm 0.00 in/hr0.0 mm/hr 0.00 in0.0 mm
06:54 PM 48.9°F9.4°C 41.0°F5.0°C 74% 1.6 mph SSE2.6 kmh SSE 8.3 mph13.4 kmh 30.65 in1037.9 mb 0.00 in0.0 mm 0.00 in/hr0.0 mm/hr 0.00 in0.0 mm
06:55 PM 48.9°F9.4°C 41.0°F5.0°C 74% 5.4 mph SSE8.7 kmh SSE 11.4 mph18.3 kmh 30.64 in1037.6 mb 0.00 in0.0 mm 0.00 in/hr0.0 mm/hr 0.00 in0.0 mm
06:56 PM 48.9°F9.4°C 41.0°F5.0°C 74% 2.2 mph SE3.5 kmh SE 11.4 mph18.3 kmh 30.64 in1037.6 mb 0.00 in0.0 mm 0.00 in/hr0.0 mm/hr 0.00 in0.0 mm
06:57 PM 48.9°F9.4°C 41.0°F5.0°C 74% 3.8 mph SSE6.1 kmh SSE 11.4 mph18.3 kmh 30.64 in1037.6 mb 0.00 in0.0 mm 0.00 in/hr0.0 mm/hr 0.00 in0.0 mm
06:58 PM 48.7°F9.3°C 40.8°F4.9°C 74% 1.6 mph SE2.6 kmh SE 11.4 mph18.3 kmh 30.64 in1037.6 mb 0.00 in0.0 mm 0.00 in/hr0.0 mm/hr 0.00 in0.0 mm
06:59 PM 48.7°F9.3°C 40.8°F4.9°C 74% 0.7 mph SE1.1 kmh SE 11.4 mph18.3 kmh 30.64 in1037.6 mb 0.00 in0.0 mm 0.00 in/hr0.0 mm/hr 0.00 in0.0 mm
07:00 PM 48.7°F9.3°C 40.8°F4.9°C 74% 4.5 mph SE7.2 kmh SE 11.4 mph18.3 kmh 30.63 in1037.3 mb 0.00 in0.0 mm 0.00 in/hr0.0 mm/hr 0.00 in0.0 mm
07:01 PM 48.7°F9.3°C 40.8°F4.9°C 74% 3.1 mph E5.0 kmh E 11.4 mph18.3 kmh 30.64 in1037.6 mb 0.00 in0.0 mm 0.00 in/hr0.0 mm/hr 0.00 in0.0 mm
07:02 PM 48.7°F9.3°C 40.8°F4.9°C 74% 6.0 mph SSW9.7 kmh SSW 13.6 mph21.9 kmh 30.64 in1037.6 mb 0.00 in0.0 mm 0.00 in/hr0.0 mm/hr 0.00 in0.0 mm
07:03 PM 48.7°F9.3°C 40.8°F4.9°C 74% 3.1 mph S5.0 kmh S 13.6 mph21.9 kmh 30.64 in1037.6 mb 0.00 in0.0 mm 0.00 in/hr0.0 mm/hr 0.00 in0.0 mm
07:04 PM 48.7°F9.3°C 40.8°F4.9°C 74% 1.6 mph SSW2.6 kmh SSW 13.6 mph21.9 kmh 30.64 in1037.6 mb 0.00 in0.0 mm 0.00 in/hr0.0 mm/hr 0.00 in0.0 mm
07:05 PM 48.7°F9.3°C 40.8°F4.9°C 74% 0.7 mph SSW1.1 kmh SSW 13.6 mph21.9 kmh 30.64 in1037.6 mb 0.00 in0.0 mm 0.00 in/hr0.0 mm/hr 0.00 in0.0 mm
08:00 PM 48.7°F9.3°C 40.8°F4.9°C 74% 1.6 mph SSW2.6 kmh SSW 13.6 mph21.9 kmh 30.64 in1037.6 mb 0.00 in0.0 mm 0.00 in/hr0.0 mm/hr 0.00 in0.0 mm
08:02 PM 48.6°F9.2°C 40.7°F4.8°C 74% Calm Calm 3.1 mph5.0 kmh 30.66 in1038.3 mb 0.00 in0.0 mm 0.00 in/hr0.0 mm/hr 0.00 in0.0 mm
08:03 PM 48.6°F9.2°C 40.7°F4.8°C 74% Calm Calm 3.1 mph5.0 kmh 30.66 in1038.3 mb 0.00 in0.0 mm 0.00 in/hr0.0 mm/hr 0.00 in0.0 mm
08:04 PM 48.6°F9.2°C 40.7°F4.8°C 74% 0.7 mph WSW1.1 kmh WSW 3.1 mph5.0 kmh 30.66 in1038.3 mb 0.00 in0.0 mm 0.00 in/hr0.0 mm/hr 0.00 in0.0 mm
08:05 PM 48.6°F9.2°C 40.7°F4.8°C 74% 0.7 mph WSW1.1 kmh WSW 3.1 mph5.0 kmh 30.66 in1038.3 mb 0.00 in0.0 mm 0.00 in/hr0.0 mm/hr 0.00 in0.0 mm
08:06 PM 48.4°F9.1°C 40.5°F4.7°C 74% 0.7 mph WSW1.1 kmh WSW 3.1 mph5.0 kmh 30.66 in1038.3 mb 0.00 in0.0 mm 0.00 in/hr0.0 mm/hr 0.00 in0.0 mm
08:07 PM 48.4°F9.1°C 40.5°F4.7°C 74% Calm Calm 3.1 mph5.0 kmh 30.66 in1038.3 mb 0.00 in0.0 mm 0.00 in/hr0.0 mm/hr 0.00 in0.0 mm
08:08 PM 48.4°F9.1°C 40.5°F4.7°C 74% Calm Calm 3.1 mph5.0 kmh 30.65 in1037.9 mb 0.00 in0.0 mm 0.00 in/hr0.0 mm/hr 0.00 in0.0 mm
08:09 PM 48.2°F9.0°C 40.3°F4.6°C 74% Calm Calm 3.1 mph5.0 kmh 30.65 in1037.9 mb 0.00 in0.0 mm 0.00 in/hr0.0 mm/hr 0.00 in0.0 mm
08:10 PM 48.0°F8.9°C 40.5°F4.7°C 75% 2.2 mph WSW3.5 kmh WSW 4.5 mph7.2 kmh 30.66 in1038.3 mb 0.00 in0.0 mm 0.00 in/hr0.0 mm/hr 0.00 in0.0 mm
08:11 PM 48.0°F8.9°C 40.5°F4.7°C 75% 1.6 mph WSW2.6 kmh WSW 4.5 mph7.2 kmh 30.66 in1038.3 mb 0.00 in0.0 mm 0.00 in/hr0.0 mm/hr 0.00 in0.0 mm
08:12 PM 48.0°F8.9°C 40.5°F4.7°C 75% 0.7 mph SW1.1 kmh SW 4.5 mph7.2 kmh 30.66 in1038.3 mb 0.00 in0.0 mm 0.00 in/hr0.0 mm/hr 0.00 in0.0 mm
08:13 PM 47.8°F8.8°C 40.3°F4.6°C 75% 1.6 mph WSW2.6 kmh WSW 4.5 mph7.2 kmh 30.66 in1038.3 mb 0.00 in0.0 mm 0.00 in/hr0.0 mm/hr 0.00 in0.0 mm
08:14 PM 47.8°F8.8°C 40.6°F4.8°C 76% 0.7 mph WSW1.1 kmh WSW 6.0 mph9.7 kmh 30.66 in1038.3 mb 0.00 in0.0 mm 0.00 in/hr0.0 mm/hr 0.00 in0.0 mm
08:15 PM 47.8°F8.8°C 40.6°F4.8°C 76% Calm Calm 6.0 mph9.7 kmh 30.66 in1038.3 mb 0.00 in0.0 mm 0.00 in/hr0.0 mm/hr 0.00 in0.0 mm
08:16 PM 47.8°F8.8°C 40.6°F4.8°C 76% Calm Calm 6.0 mph9.7 kmh 30.66 in1038.3 mb 0.00 in0.0 mm 0.00 in/hr0.0 mm/hr 0.00 in0.0 mm
08:17 PM 47.7°F8.7°C 40.5°F4.7°C 76% 0.7 mph WSW1.1 kmh WSW 6.0 mph9.7 kmh 30.66 in1038.3 mb 0.00 in0.0 mm 0.00 in/hr0.0 mm/hr 0.00 in0.0 mm
08:18 PM 47.7°F8.7°C 40.5°F4.7°C 76% 0.7 mph WSW1.1 kmh WSW 6.0 mph9.7 kmh 30.66 in1038.3 mb 0.00 in0.0 mm 0.00 in/hr0.0 mm/hr 0.00 in0.0 mm
08:19 PM 47.7°F8.7°C 40.5°F4.7°C 76% 1.6 mph W2.6 kmh W 6.0 mph9.7 kmh 30.66 in1038.3 mb 0.00 in0.0 mm 0.00 in/hr0.0 mm/hr 0.00 in0.0 mm
08:20 PM 47.7°F8.7°C 40.5°F4.7°C 76% 0.7 mph W1.1 kmh W 6.0 mph9.7 kmh 30.66 in1038.3 mb 0.00 in0.0 mm 0.00 in/hr0.0 mm/hr 0.00 in0.0 mm
08:21 PM 47.7°F8.7°C 40.5°F4.7°C 76% 0.7 mph W1.1 kmh W 6.0 mph9.7 kmh 30.66 in1038.3 mb 0.00 in0.0 mm 0.00 in/hr0.0 mm/hr 0.00 in0.0 mm
08:22 PM 47.7°F8.7°C 40.5°F4.7°C 76% Calm Calm 6.0 mph9.7 kmh 30.66 in1038.3 mb 0.00 in0.0 mm 0.00 in/hr0.0 mm/hr 0.00 in0.0 mm
08:23 PM 47.7°F8.7°C 40.5°F4.7°C 76% 0.7 mph WNW1.1 kmh WNW 6.0 mph9.7 kmh 30.66 in1038.3 mb 0.00 in0.0 mm 0.00 in/hr0.0 mm/hr 0.00 in0.0 mm
08:24 PM 47.7°F8.7°C 40.5°F4.7°C 76% Calm Calm 3.8 mph6.1 kmh 30.66 in1038.3 mb 0.00 in0.0 mm 0.00 in/hr0.0 mm/hr 0.00 in0.0 mm
08:25 PM 47.7°F8.7°C 40.8°F4.9°C 77% 1.6 mph NW2.6 kmh NW 3.8 mph6.1 kmh 30.66 in1038.3 mb 0.00 in0.0 mm 0.00 in/hr0.0 mm/hr 0.00 in0.0 mm
08:26 PM 47.7°F8.7°C 40.8°F4.9°C 77% 3.1 mph NW5.0 kmh NW 5.4 mph8.7 kmh 30.66 in1038.3 mb 0.00 in0.0 mm 0.00 in/hr0.0 mm/hr 0.00 in0.0 mm
08:27 PM 47.7°F8.7°C 40.8°F4.9°C 77% 1.6 mph NW2.6 kmh NW 5.4 mph8.7 kmh 30.66 in1038.3 mb 0.00 in0.0 mm 0.00 in/hr0.0 mm/hr 0.00 in0.0 mm
08:28 PM 47.7°F8.7°C 40.8°F4.9°C 77% 1.6 mph NW2.6 kmh NW 5.4 mph8.7 kmh 30.66 in1038.3 mb 0.00 in0.0 mm 0.00 in/hr0.0 mm/hr 0.00 in0.0 mm
08:29 PM 47.8°F8.8°C 40.6°F4.8°C 76% Calm Calm 5.4 mph8.7 kmh 30.66 in1038.3 mb 0.00 in0.0 mm 0.00 in/hr0.0 mm/hr 0.00 in0.0 mm
08:30 PM 47.7°F8.7°C 40.5°F4.7°C 76% Calm Calm 5.4 mph8.7 kmh 30.66 in1038.3 mb 0.00 in0.0 mm 0.00 in/hr0.0 mm/hr 0.00 in0.0 mm
08:31 PM 47.7°F8.7°C 40.5°F4.7°C 76% 0.7 mph N1.1 kmh N 5.4 mph8.7 kmh 30.66 in1038.3 mb 0.00 in0.0 mm 0.00 in/hr0.0 mm/hr 0.00 in0.0 mm
08:32 PM 47.7°F8.7°C 40.5°F4.7°C 76% Calm Calm 5.4 mph8.7 kmh 30.66 in1038.3 mb 0.00 in0.0 mm 0.00 in/hr0.0 mm/hr 0.00 in0.0 mm
08:33 PM 47.7°F8.7°C 40.5°F4.7°C 76% Calm Calm 5.4 mph8.7 kmh 30.66 in1038.3 mb 0.00 in0.0 mm 0.00 in/hr0.0 mm/hr 0.00 in0.0 mm
08:34 PM 47.5°F8.6°C 40.3°F4.6°C 76% Calm Calm 5.4 mph8.7 kmh 30.66 in1038.3 mb 0.00 in0.0 mm 0.00 in/hr0.0 mm/hr 0.00 in0.0 mm
08:35 PM 47.5°F8.6°C 40.6°F4.8°C 77% 1.6 mph N2.6 kmh N 5.4 mph8.7 kmh 30.66 in1038.3 mb 0.00 in0.0 mm 0.00 in/hr0.0 mm/hr 0.00 in0.0 mm
08:36 PM 47.5°F8.6°C 40.6°F4.8°C 77% 3.1 mph N5.0 kmh N 5.4 mph8.7 kmh 30.66 in1038.3 mb 0.00 in0.0 mm 0.00 in/hr0.0 mm/hr 0.00 in0.0 mm
08:37 PM 47.5°F8.6°C 40.6°F4.8°C 77% 2.2 mph N3.5 kmh N 4.5 mph7.2 kmh 30.67 in1038.6 mb 0.00 in0.0 mm 0.00 in/hr0.0 mm/hr 0.00 in0.0 mm
08:38 PM 47.5°F8.6°C 40.6°F4.8°C 77% 1.6 mph NNE2.6 kmh NNE 4.5 mph7.2 kmh 30.66 in1038.3 mb 0.00 in0.0 mm 0.00 in/hr0.0 mm/hr 0.00 in0.0 mm
08:39 PM 47.5°F8.6°C 40.6°F4.8°C 77% 2.2 mph NNE3.5 kmh NNE 4.5 mph7.2 kmh 30.67 in1038.6 mb 0.00 in0.0 mm 0.00 in/hr0.0 mm/hr 0.00 in0.0 mm
08:40 PM 47.5°F8.6°C 40.6°F4.8°C 77% 0.7 mph N1.1 kmh N 4.5 mph7.2 kmh 30.67 in1038.6 mb 0.00 in0.0 mm 0.00 in/hr0.0 mm/hr 0.00 in0.0 mm
08:41 PM 47.5°F8.6°C 40.6°F4.8°C 77% 1.6 mph NNE2.6 kmh NNE 4.5 mph7.2 kmh 30.67 in1038.6 mb 0.00 in0.0 mm 0.00 in/hr0.0 mm/hr 0.00 in0.0 mm
08:42 PM 47.5°F8.6°C 41.0°F5.0°C 78% 1.6 mph NNE2.6 kmh NNE 4.5 mph7.2 kmh 30.66 in1038.3 mb 0.00 in0.0 mm 0.00 in/hr0.0 mm/hr 0.00 in0.0 mm
08:43 PM 47.5°F8.6°C 40.6°F4.8°C 77% 0.7 mph NNE1.1 kmh NNE 4.5 mph7.2 kmh 30.66 in1038.3 mb 0.00 in0.0 mm 0.00 in/hr0.0 mm/hr 0.00 in0.0 mm
08:44 PM 47.5°F8.6°C 40.6°F4.8°C 77% 1.6 mph NNE2.6 kmh NNE 4.5 mph7.2 kmh 30.66 in1038.3 mb 0.00 in0.0 mm 0.00 in/hr0.0 mm/hr 0.00 in0.0 mm
08:45 PM 47.5°F8.6°C 41.0°F5.0°C 78% 2.2 mph NNE3.5 kmh NNE 6.0 mph9.7 kmh 30.66 in1038.3 mb 0.00 in0.0 mm 0.00 in/hr0.0 mm/hr 0.00 in0.0 mm
08:46 PM 47.7°F8.7°C 40.8°F4.9°C 77% Calm Calm 6.0 mph9.7 kmh 30.67 in1038.6 mb 0.00 in0.0 mm 0.00 in/hr0.0 mm/hr 0.00 in0.0 mm
08:47 PM 47.7°F8.7°C 40.8°F4.9°C 77% Calm Calm 6.0 mph9.7 kmh 30.67 in1038.6 mb 0.00 in0.0 mm 0.00 in/hr0.0 mm/hr 0.00 in0.0 mm
08:48 PM 47.5°F8.6°C 40.6°F4.8°C 77% Calm Calm 6.0 mph9.7 kmh 30.67 in1038.6 mb 0.00 in0.0 mm 0.00 in/hr0.0 mm/hr 0.00 in0.0 mm
08:49 PM 47.5°F8.6°C 40.6°F4.8°C 77% 1.6 mph NNE2.6 kmh NNE 6.0 mph9.7 kmh 30.67 in1038.6 mb 0.00 in0.0 mm 0.00 in/hr0.0 mm/hr 0.00 in0.0 mm
08:50 PM 47.5°F8.6°C 40.6°F4.8°C 77% 0.7 mph NE1.1 kmh NE 6.0 mph9.7 kmh 30.67 in1038.6 mb 0.00 in0.0 mm 0.00 in/hr0.0 mm/hr 0.00 in0.0 mm
08:51 PM 47.5°F8.6°C 40.6°F4.8°C 77% 0.7 mph NE1.1 kmh NE 6.0 mph9.7 kmh 30.67 in1038.6 mb 0.00 in0.0 mm 0.00 in/hr0.0 mm/hr 0.00 in0.0 mm
08:52 PM 47.5°F8.6°C 41.0°F5.0°C 78% 1.6 mph NE2.6 kmh NE 6.0 mph9.7 kmh 30.67 in1038.6 mb 0.00 in0.0 mm 0.00 in/hr0.0 mm/hr 0.00 in0.0 mm
08:53 PM 47.5°F8.6°C 41.0°F5.0°C 78% 3.1 mph E5.0 kmh E 6.9 mph11.1 kmh 30.67 in1038.6 mb 0.00 in0.0 mm 0.00 in/hr0.0 mm/hr 0.00 in0.0 mm
08:54 PM 47.5°F8.6°C 41.3°F5.2°C 79% 1.6 mph SSE2.6 kmh SSE 8.3 mph13.4 kmh 30.67 in1038.6 mb 0.00 in0.0 mm 0.00 in/hr0.0 mm/hr 0.00 in0.0 mm
08:55 PM 47.7°F8.7°C 41.1°F5.1°C 78% 4.5 mph S7.2 kmh S 11.4 mph18.3 kmh 30.67 in1038.6 mb 0.00 in0.0 mm 0.00 in/hr0.0 mm/hr 0.00 in0.0 mm
08:56 PM 47.7°F8.7°C 41.1°F5.1°C 78% 2.2 mph SSW3.5 kmh SSW 11.4 mph18.3 kmh 30.67 in1038.6 mb 0.00 in0.0 mm 0.00 in/hr0.0 mm/hr 0.00 in0.0 mm
08:57 PM 47.8°F8.8°C 41.3°F5.2°C 78% 0.7 mph SW1.1 kmh SW 11.4 mph18.3 kmh 30.67 in1038.6 mb 0.00 in0.0 mm 0.00 in/hr0.0 mm/hr 0.00 in0.0 mm
08:58 PM 47.8°F8.8°C 41.0°F5.0°C 77% Calm Calm 11.4 mph18.3 kmh 30.67 in1038.6 mb 0.00 in0.0 mm 0.00 in/hr0.0 mm/hr 0.00 in0.0 mm
08:59 PM 47.8°F8.8°C 41.0°F5.0°C 77% 1.6 mph SW2.6 kmh SW 11.4 mph18.3 kmh 30.67 in1038.6 mb 0.00 in0.0 mm 0.00 in/hr0.0 mm/hr 0.00 in0.0 mm
09:00 PM 47.8°F8.8°C 41.0°F5.0°C 77% 0.7 mph SW1.1 kmh SW 11.4 mph18.3 kmh 30.67 in1038.6 mb 0.00 in0.0 mm 0.00 in/hr0.0 mm/hr 0.00 in0.0 mm
09:01 PM 47.8°F8.8°C 41.0°F5.0°C 77% 0.7 mph SW1.1 kmh SW 11.4 mph18.3 kmh 30.67 in1038.6 mb 0.00 in0.0 mm 0.00 in/hr0.0 mm/hr 0.00 in0.0 mm
09:02 PM 47.8°F8.8°C 41.0°F5.0°C 77% Calm Calm 11.4 mph18.3 kmh 30.67 in1038.6 mb 0.00 in0.0 mm 0.00 in/hr0.0 mm/hr 0.00 in0.0 mm
09:03 PM 47.8°F8.8°C 41.0°F5.0°C 77% 1.6 mph SW2.6 kmh SW 11.4 mph18.3 kmh 30.66 in1038.3 mb 0.00 in0.0 mm 0.00 in/hr0.0 mm/hr 0.00 in0.0 mm
09:04 PM 47.8°F8.8°C 41.0°F5.0°C 77% Calm Calm 11.4 mph18.3 kmh 30.66 in1038.3 mb 0.00 in0.0 mm 0.00 in/hr0.0 mm/hr 0.00 in0.0 mm
09:05 PM 47.8°F8.8°C 41.0°F5.0°C 77% Calm Calm 11.4 mph18.3 kmh 30.66 in1038.3 mb 0.00 in0.0 mm 0.00 in/hr0.0 mm/hr 0.00 in0.0 mm
09:06 PM 47.8°F8.8°C 41.0°F5.0°C 77% Calm Calm 4.5 mph7.2 kmh 30.67 in1038.6 mb 0.00 in0.0 mm 0.00 in/hr0.0 mm/hr 0.00 in0.0 mm
09:07 PM 47.8°F8.8°C 41.0°F5.0°C 77% Calm Calm 4.5 mph7.2 kmh 30.67 in1038.6 mb 0.00 in0.0 mm 0.00 in/hr0.0 mm/hr 0.00 in0.0 mm
09:08 PM 47.8°F8.8°C 41.0°F5.0°C 77% 1.6 mph NE2.6 kmh NE 4.5 mph7.2 kmh 30.67 in1038.6 mb 0.00 in0.0 mm 0.00 in/hr0.0 mm/hr 0.00 in0.0 mm
09:09 PM 47.7°F8.7°C 40.8°F4.9°C 77% 3.8 mph NNE6.1 kmh NNE 5.4 mph8.7 kmh 30.66 in1038.3 mb 0.00 in0.0 mm 0.00 in/hr0.0 mm/hr 0.00 in0.0 mm
09:10 PM 47.7°F8.7°C 40.8°F4.9°C 77% 3.1 mph NNE5.0 kmh NNE 6.9 mph11.1 kmh 30.66 in1038.3 mb 0.00 in0.0 mm 0.00 in/hr0.0 mm/hr 0.00 in0.0 mm
09:11 PM 47.7°F8.7°C 40.8°F4.9°C 77% 2.2 mph NNE3.5 kmh NNE 6.9 mph11.1 kmh 30.66 in1038.3 mb 0.00 in0.0 mm 0.00 in/hr0.0 mm/hr 0.00 in0.0 mm
09:12 PM 47.7°F8.7°C 40.8°F4.9°C 77% Calm Calm 6.9 mph11.1 kmh 30.66 in1038.3 mb 0.00 in0.0 mm 0.00 in/hr0.0 mm/hr 0.00 in0.0 mm
09:13 PM 47.7°F8.7°C 40.8°F4.9°C 77% Calm Calm 6.9 mph11.1 kmh 30.67 in1038.6 mb 0.00 in0.0 mm 0.00 in/hr0.0 mm/hr 0.00 in0.0 mm
09:14 PM 47.7°F8.7°C 40.8°F4.9°C 77% 0.7 mph NNE1.1 kmh NNE 6.9 mph11.1 kmh 30.67 in1038.6 mb 0.00 in0.0 mm 0.00 in/hr0.0 mm/hr 0.00 in0.0 mm
09:15 PM 47.5°F8.6°C 40.6°F4.8°C 77% 1.6 mph NNE2.6 kmh NNE 6.9 mph11.1 kmh 30.67 in1038.6 mb 0.00 in0.0 mm 0.00 in/hr0.0 mm/hr 0.00 in0.0 mm
09:16 PM 47.5°F8.6°C 40.6°F4.8°C 77% 3.1 mph NE5.0 kmh NE 6.9 mph11.1 kmh 30.67 in1038.6 mb 0.00 in0.0 mm 0.00 in/hr0.0 mm/hr 0.00 in0.0 mm
09:17 PM 47.5°F8.6°C 40.6°F4.8°C 77% 0.7 mph NE1.1 kmh NE 6.9 mph11.1 kmh 30.67 in1038.6 mb 0.00 in0.0 mm 0.00 in/hr0.0 mm/hr 0.00 in0.0 mm
09:18 PM 47.5°F8.6°C 40.6°F4.8°C 77% Calm Calm 6.9 mph11.1 kmh 30.67 in1038.6 mb 0.00 in0.0 mm 0.00 in/hr0.0 mm/hr 0.00 in0.0 mm
09:19 PM 47.5°F8.6°C 40.6°F4.8°C 77% Calm Calm 6.9 mph11.1 kmh 30.67 in1038.6 mb 0.00 in0.0 mm 0.00 in/hr0.0 mm/hr 0.00 in0.0 mm
09:20 PM 47.5°F8.6°C 40.6°F4.8°C 77% Calm Calm 6.9 mph11.1 kmh 30.67 in1038.6 mb 0.00 in0.0 mm 0.00 in/hr0.0 mm/hr 0.00 in0.0 mm
09:21 PM 47.5°F8.6°C 40.6°F4.8°C 77% Calm Calm 6.9 mph11.1 kmh 30.67 in1038.6 mb 0.00 in0.0 mm 0.00 in/hr0.0 mm/hr 0.00 in0.0 mm
09:22 PM 47.3°F8.5°C 40.5°F4.7°C 77% Calm Calm 6.9 mph11.1 kmh 30.67 in1038.6 mb 0.00 in0.0 mm 0.00 in/hr0.0 mm/hr 0.00 in0.0 mm
09:23 PM 47.3°F8.5°C 40.5°F4.7°C 77% 0.7 mph E1.1 kmh E 6.9 mph11.1 kmh 30.67 in1038.6 mb 0.00 in0.0 mm 0.00 in/hr0.0 mm/hr 0.00 in0.0 mm
09:24 PM 47.3°F8.5°C 40.5°F4.7°C 77% Calm Calm 6.9 mph11.1 kmh 30.67 in1038.6 mb 0.00 in0.0 mm 0.00 in/hr0.0 mm/hr 0.00 in0.0 mm
09:25 PM 47.3°F8.5°C 40.5°F4.7°C 77% Calm Calm 6.9 mph11.1 kmh 30.67 in1038.6 mb 0.00 in0.0 mm 0.00 in/hr0.0 mm/hr 0.00 in0.0 mm
09:26 PM 47.3°F8.5°C 40.5°F4.7°C 77% Calm Calm 6.9 mph11.1 kmh 30.68 in1038.9 mb 0.00 in0.0 mm 0.00 in/hr0.0 mm/hr 0.00 in0.0 mm
09:27 PM 47.3°F8.5°C 40.5°F4.7°C 77% 2.2 mph NW3.5 kmh NW 5.4 mph8.7 kmh 30.67 in1038.6 mb 0.00 in0.0 mm 0.00 in/hr0.0 mm/hr 0.00 in0.0 mm
09:28 PM 47.3°F8.5°C 40.8°F4.9°C 78% 2.2 mph NNE3.5 kmh NNE 4.5 mph7.2 kmh 30.67 in1038.6 mb 0.00 in0.0 mm 0.00 in/hr0.0 mm/hr 0.00 in0.0 mm
09:29 PM 47.3°F8.5°C 40.5°F4.7°C 77% Calm Calm 4.5 mph7.2 kmh 30.67 in1038.6 mb 0.00 in0.0 mm 0.00 in/hr0.0 mm/hr 0.00 in0.0 mm
09:30 PM 47.3°F8.5°C 40.5°F4.7°C 77% 0.7 mph NE1.1 kmh NE 4.5 mph7.2 kmh 30.67 in1038.6 mb 0.00 in0.0 mm 0.00 in/hr0.0 mm/hr 0.00 in0.0 mm
09:31 PM 47.3°F8.5°C 40.5°F4.7°C 77% Calm Calm 4.5 mph7.2 kmh 30.67 in1038.6 mb 0.00 in0.0 mm 0.00 in/hr0.0 mm/hr 0.00 in0.0 mm
09:32 PM 47.3°F8.5°C 40.5°F4.7°C 77% 0.7 mph NE1.1 kmh NE 4.5 mph7.2 kmh 30.67 in1038.6 mb 0.00 in0.0 mm 0.00 in/hr0.0 mm/hr 0.00 in0.0 mm
09:33 PM 47.3°F8.5°C 40.5°F4.7°C 77% 2.2 mph ENE3.5 kmh ENE 5.4 mph8.7 kmh 30.67 in1038.6 mb 0.00 in0.0 mm 0.00 in/hr0.0 mm/hr 0.00 in0.0 mm
09:34 PM 47.3°F8.5°C 40.8°F4.9°C 78% 0.7 mph E1.1 kmh E 6.0 mph9.7 kmh 30.67 in1038.6 mb 0.00 in0.0 mm 0.00 in/hr0.0 mm/hr 0.00 in0.0 mm
09:35 PM 47.3°F8.5°C 40.8°F4.9°C 78% 0.7 mph E1.1 kmh E 6.0 mph9.7 kmh 30.67 in1038.6 mb 0.00 in0.0 mm 0.00 in/hr0.0 mm/hr 0.00 in0.0 mm
09:36 PM 47.3°F8.5°C 40.8°F4.9°C 78% Calm Calm 6.0 mph9.7 kmh 30.67 in1038.6 mb 0.00 in0.0 mm 0.00 in/hr0.0 mm/hr 0.00 in0.0 mm
09:37 PM 47.3°F8.5°C 40.8°F4.9°C 78% 1.6 mph SE2.6 kmh SE 6.0 mph9.7 kmh 30.67 in1038.6 mb 0.00 in0.0 mm 0.00 in/hr0.0 mm/hr 0.00 in0.0 mm
09:38 PM 47.3°F8.5°C 40.8°F4.9°C 78% 1.6 mph SSE2.6 kmh SSE 6.0 mph9.7 kmh 30.67 in1038.6 mb 0.00 in0.0 mm 0.00 in/hr0.0 mm/hr 0.00 in0.0 mm
09:39 PM 47.3°F8.5°C 40.8°F4.9°C 78% 0.7 mph S1.1 kmh S 6.0 mph9.7 kmh 30.67 in1038.6 mb 0.00 in0.0 mm 0.00 in/hr0.0 mm/hr 0.00 in0.0 mm
09:40 PM 47.3°F8.5°C 40.8°F4.9°C 78% 1.6 mph S2.6 kmh S 6.0 mph9.7 kmh 30.67 in1038.6 mb 0.00 in0.0 mm 0.00 in/hr0.0 mm/hr 0.00 in0.0 mm
09:41 PM 47.3°F8.5°C 40.8°F4.9°C 78% 0.7 mph S1.1 kmh S 6.0 mph9.7 kmh 30.67 in1038.6 mb 0.00 in0.0 mm 0.00 in/hr0.0 mm/hr 0.00 in0.0 mm
09:42 PM 47.3°F8.5°C 40.5°F4.7°C 77% 1.6 mph S2.6 kmh S 6.0 mph9.7 kmh 30.67 in1038.6 mb 0.00 in0.0 mm 0.00 in/hr0.0 mm/hr 0.00 in0.0 mm
09:43 PM 47.3°F8.5°C 40.8°F4.9°C 78% 2.2 mph S3.5 kmh S 6.0 mph9.7 kmh 30.68 in1038.9 mb 0.00 in0.0 mm 0.00 in/hr0.0 mm/hr 0.00 in0.0 mm
09:44 PM 47.3°F8.5°C 40.8°F4.9°C 78% 3.8 mph S6.1 kmh S 6.0 mph9.7 kmh 30.67 in1038.6 mb 0.00 in0.0 mm 0.00 in/hr0.0 mm/hr 0.00 in0.0 mm
09:45 PM 47.3°F8.5°C 40.8°F4.9°C 78% 1.6 mph S2.6 kmh S 6.0 mph9.7 kmh 30.67 in1038.6 mb 0.00 in0.0 mm 0.00 in/hr0.0 mm/hr 0.00 in0.0 mm
09:46 PM 47.3°F8.5°C 40.8°F4.9°C 78% 2.2 mph SSW3.5 kmh SSW 7.6 mph12.2 kmh 30.67 in1038.6 mb 0.00 in0.0 mm 0.00 in/hr0.0 mm/hr 0.00 in0.0 mm
09:47 PM 47.3°F8.5°C 40.8°F4.9°C 78% 3.1 mph S5.0 kmh S 7.6 mph12.2 kmh 30.68 in1038.9 mb 0.00 in0.0 mm 0.00 in/hr0.0 mm/hr 0.00 in0.0 mm
09:48 PM 47.3°F8.5°C 40.8°F4.9°C 78% 2.2 mph S3.5 kmh S 7.6 mph12.2 kmh 30.67 in1038.6 mb 0.00 in0.0 mm 0.00 in/hr0.0 mm/hr 0.00 in0.0 mm
09:49 PM 47.3°F8.5°C 40.8°F4.9°C 78% 2.2 mph S3.5 kmh S 7.6 mph12.2 kmh 30.68 in1038.9 mb 0.00 in0.0 mm 0.00 in/hr0.0 mm/hr 0.00 in0.0 mm
09:50 PM 47.5°F8.6°C 41.0°F5.0°C 78% 0.7 mph S1.1 kmh S 7.6 mph12.2 kmh 30.67 in1038.6 mb 0.00 in0.0 mm 0.00 in/hr0.0 mm/hr 0.00 in0.0 mm
09:51 PM 47.5°F8.6°C 41.0°F5.0°C 78% 3.8 mph S6.1 kmh S 7.6 mph12.2 kmh 30.67 in1038.6 mb 0.00 in0.0 mm 0.00 in/hr0.0 mm/hr 0.00 in0.0 mm
09:52 PM 47.5°F8.6°C 41.0°F5.0°C 78% 1.6 mph SSE2.6 kmh SSE 7.6 mph12.2 kmh 30.67 in1038.6 mb 0.00 in0.0 mm 0.00 in/hr0.0 mm/hr 0.00 in0.0 mm
09:53 PM 47.5°F8.6°C 41.0°F5.0°C 78% 0.7 mph SSE1.1 kmh SSE 7.6 mph12.2 kmh 30.67 in1038.6 mb 0.00 in0.0 mm 0.00 in/hr0.0 mm/hr 0.00 in0.0 mm
09:54 PM 47.5°F8.6°C 40.6°F4.8°C 77% 0.7 mph SSE1.1 kmh SSE 7.6 mph12.2 kmh 30.67 in1038.6 mb 0.00 in0.0 mm 0.00 in/hr0.0 mm/hr 0.00 in0.0 mm
09:55 PM 47.5°F8.6°C 40.6°F4.8°C 77% 0.7 mph SE1.1 kmh SE 7.6 mph12.2 kmh 30.67 in1038.6 mb 0.00 in0.0 mm 0.00 in/hr0.0 mm/hr 0.00 in0.0 mm
09:56 PM 47.5°F8.6°C 40.6°F4.8°C 77% 1.6 mph SE2.6 kmh SE 6.9 mph11.1 kmh 30.67 in1038.6 mb 0.00 in0.0 mm 0.00 in/hr0.0 mm/hr 0.00 in0.0 mm
09:57 PM 47.5°F8.6°C 40.6°F4.8°C 77% 1.6 mph SE2.6 kmh SE 6.9 mph11.1 kmh 30.68 in1038.9 mb 0.00 in0.0 mm 0.00 in/hr0.0 mm/hr 0.00 in0.0 mm
09:58 PM 47.5°F8.6°C 40.6°F4.8°C 77% Calm Calm 6.9 mph11.1 kmh 30.67 in1038.6 mb 0.00 in0.0 mm 0.00 in/hr0.0 mm/hr 0.00 in0.0 mm
09:59 PM 47.3°F8.5°C 40.5°F4.7°C 77% Calm Calm 6.9 mph11.1 kmh 30.66 in1038.3 mb 0.00 in0.0 mm 0.00 in/hr0.0 mm/hr 0.00 in0.0 mm
10:00 PM 47.3°F8.5°C 40.5°F4.7°C 77% 1.6 mph SE2.6 kmh SE 6.9 mph11.1 kmh 30.67 in1038.6 mb 0.00 in0.0 mm 0.00 in/hr0.0 mm/hr 0.00 in0.0 mm
10:01 PM 47.3°F8.5°C 40.5°F4.7°C 77% 3.1 mph SE5.0 kmh SE 6.9 mph11.1 kmh 30.67 in1038.6 mb 0.00 in0.0 mm 0.00 in/hr0.0 mm/hr 0.00 in0.0 mm
10:02 PM 47.3°F8.5°C 40.5°F4.7°C 77% 3.1 mph S5.0 kmh S 6.0 mph9.7 kmh 30.67 in1038.6 mb 0.00 in0.0 mm 0.00 in/hr0.0 mm/hr 0.00 in0.0 mm
10:03 PM 47.1°F8.4°C 40.3°F4.6°C 77% 0.7 mph S1.1 kmh S 6.0 mph9.7 kmh 30.67 in1038.6 mb 0.00 in0.0 mm 0.00 in/hr0.0 mm/hr 0.00 in0.0 mm